Time;durP1;ratioP1;P1;durP2;ratioP2;P2;SDS_P1;SDS_P2;PMS_P1;PMS_P2;Temp;Humidity;BMP_temperature;BMP_pressure;BME280_temperature;BME280_humidity;BME280_pressure;Samples;Min_cycle;Max_cycle;Signal;HPM_P1;HPM_P2
2023/10/26 00:00:06;;;;;;;17.13;4.45;;;19.40;70.80;;;;;;349766;28;952;-56
2023/10/26 00:00:17;;;;;;;18.77;4.78;;;19.40;70.80;;;;;;349588;28;1114;-55
2023/10/26 00:00:28;;;;;;;21.17;5.00;;;19.40;70.80;;;;;;349775;28;801;-56
2023/10/26 00:00:38;;;;;;;20.63;4.80;;;19.40;70.80;;;;;;349748;28;983;-57
2023/10/26 00:00:49;;;;;;;20.70;4.68;;;19.40;70.80;;;;;;349761;28;1054;-57
2023/10/26 00:01:00;;;;;;;19.70;4.50;;;19.40;70.90;;;;;;349625;28;1039;-56
2023/10/26 00:01:11;;;;;;;19.47;4.30;;;19.30;70.90;;;;;;349719;28;1067;-57
2023/10/26 00:01:21;;;;;;;17.95;3.95;;;19.30;70.90;;;;;;349680;28;1114;-56
2023/10/26 00:01:32;;;;;;;16.35;3.97;;;19.40;71.00;;;;;;349743;28;1011;-56
2023/10/26 00:01:43;;;;;;;16.80;4.30;;;19.30;71.10;;;;;;349607;28;1185;-57
2023/10/26 00:01:53;;;;;;;16.67;4.63;;;19.40;71.10;;;;;;349703;28;1489;-56
2023/10/26 00:02:04;;;;;;;16.40;4.53;;;19.30;71.10;;;;;;349784;28;1772;-56
2023/10/26 00:02:15;;;;;;;14.98;4.30;;;19.30;71.10;;;;;;349720;28;1471;-56
2023/10/26 00:02:26;;;;;;;14.10;4.30;;;19.40;71.00;;;;;;349689;28;959;-57
2023/10/26 00:02:36;;;;;;;15.23;4.43;;;19.40;71.00;;;;;;349756;28;1051;-57
2023/10/26 00:02:47;;;;;;;17.88;4.60;;;19.30;71.00;;;;;;349761;28;869;-57
2023/10/26 00:02:58;;;;;;;22.35;4.82;;;19.30;70.90;;;;;;349783;28;833;-57
2023/10/26 00:03:09;;;;;;;21.77;4.63;;;19.30;70.90;;;;;;349654;28;1013;-56
2023/10/26 00:03:19;;;;;;;19.80;4.43;;;19.30;70.90;;;;;;349755;28;1000;-56
2023/10/26 00:03:30;;;;;;;16.13;4.33;;;19.40;70.90;;;;;;349772;28;884;-55
2023/10/26 00:03:41;;;;;;;17.45;4.57;;;19.30;70.90;;;;;;349731;28;888;-58
2023/10/26 00:03:52;;;;;;;17.73;4.75;;;19.30;71.00;;;;;;349686;28;895;-56
2023/10/26 00:04:03;;;;;;;18.98;4.75;;;19.30;71.10;;;;;;349751;28;1034;-57
2023/10/26 00:04:13;;;;;;;18.13;4.78;;;19.40;71.10;;;;;;349713;28;1114;-57
2023/10/26 00:04:24;;;;;;;20.60;4.93;;;19.30;71.00;;;;;;349725;28;1404;-57
2023/10/26 00:04:35;;;;;;;18.30;4.75;;;19.40;71.10;;;;;;349686;28;912;-57
2023/10/26 00:04:45;;;;;;;18.30;4.75;;;19.40;71.00;;;;;;349679;28;1039;-57
2023/10/26 00:04:56;;;;;;;16.25;4.57;;;19.30;71.00;;;;;;349706;28;1228;-56
2023/10/26 00:05:07;;;;;;;15.77;4.60;;;19.40;71.00;;;;;;349803;28;872;-56
2023/10/26 00:05:18;;;;;;;14.65;4.20;;;19.40;71.10;;;;;;349596;28;1137;-57
2023/10/26 00:05:29;;;;;;;16.27;4.20;;;19.40;71.00;;;;;;349767;28;972;-55
2023/10/26 00:05:39;;;;;;;16.67;4.20;;;19.40;71.00;;;;;;349723;28;968;-55
2023/10/26 00:05:50;;;;;;;16.27;4.28;;;19.40;70.90;;;;;;349757;28;960;-55
2023/10/26 00:06:01;;;;;;;16.93;4.10;;;19.40;70.80;;;;;;349695;28;1865;-57
2023/10/26 00:06:11;;;;;;;18.67;4.30;;;19.40;70.90;;;;;;349697;28;1429;-55
2023/10/26 00:06:22;;;;;;;18.35;4.47;;;19.40;71.00;;;;;;349742;28;849;-57
2023/10/26 00:06:33;;;;;;;16.70;4.30;;;19.40;71.00;;;;;;349607;28;2055;-56
2023/10/26 00:06:44;;;;;;;16.83;4.43;;;19.40;70.90;;;;;;349628;28;1093;-56
2023/10/26 00:06:54;;;;;;;16.73;4.45;;;19.40;71.00;;;;;;349745;28;884;-56
2023/10/26 00:07:06;;;;;;;16.67;4.45;;;19.40;71.00;;;;;;349734;28;956;-56
2023/10/26 00:07:16;;;;;;;17.17;4.28;;;19.40;70.90;;;;;;349728;28;907;-56
2023/10/26 00:07:28;;;;;;;18.15;4.38;;;19.40;70.80;;;;;;349653;28;1011;-56
2023/10/26 00:07:38;;;;;;;15.63;4.32;;;19.40;70.80;;;;;;349671;28;1039;-56
2023/10/26 00:07:49;;;;;;;15.40;4.30;;;19.40;70.70;;;;;;349765;28;883;-56
2023/10/26 00:08:00;;;;;;;16.27;4.20;;;19.40;70.70;;;;;;349724;28;1091;-55
2023/10/26 00:08:10;;;;;;;16.57;4.00;;;19.40;70.80;;;;;;349638;28;947;-56
2023/10/26 00:08:21;;;;;;;16.70;4.17;;;19.40;70.80;;;;;;349726;28;1646;-56
2023/10/26 00:08:32;;;;;;;16.00;4.35;;;19.40;70.70;;;;;;349671;28;1015;-56
2023/10/26 00:08:42;;;;;;;16.27;4.55;;;19.40;70.70;;;;;;349708;28;1038;-56
2023/10/26 00:08:53;;;;;;;17.07;4.50;;;19.40;70.70;;;;;;349747;28;1095;-56
2023/10/26 00:09:04;;;;;;;19.15;4.60;;;19.40;70.70;;;;;;349672;28;950;-57
2023/10/26 00:09:15;;;;;;;19.67;4.25;;;19.40;70.70;;;;;;349689;28;1162;-56
2023/10/26 00:09:26;;;;;;;19.05;4.47;;;19.40;70.70;;;;;;349703;28;964;-57
2023/10/26 00:09:36;;;;;;;16.25;4.25;;;19.40;70.80;;;;;;349743;28;995;-56
2023/10/26 00:09:47;;;;;;;17.80;4.70;;;19.40;70.80;;;;;;349680;28;1147;-56
2023/10/26 00:09:58;;;;;;;18.02;4.70;;;19.40;70.80;;;;;;349652;28;979;-55
2023/10/26 00:10:08;;;;;;;19.05;5.13;;;19.40;70.90;;;;;;349743;28;1039;-56
2023/10/26 00:10:19;;;;;;;18.27;4.82;;;19.40;70.90;;;;;;349665;28;1024;-56
2023/10/26 00:10:30;;;;;;;19.10;4.67;;;19.30;70.80;;;;;;349734;28;1099;-56
2023/10/26 00:10:41;;;;;;;18.88;4.50;;;19.40;70.90;;;;;;349737;28;1316;-56
2023/10/26 00:10:52;;;;;;;17.80;4.50;;;19.30;70.90;;;;;;349675;28;1019;-55
2023/10/26 00:11:04;;;;;;;15.52;4.55;;;19.30;71.00;;;;;;349727;28;1035;-56
2023/10/26 00:11:14;;;;;;;16.48;4.70;;;19.30;71.00;;;;;;349659;28;1007;-56
2023/10/26 00:11:25;;;;;;;16.95;4.32;;;19.30;71.00;;;;;;349706;28;1038;-56
2023/10/26 00:11:36;;;;;;;18.07;4.37;;;19.30;71.10;;;;;;349672;28;1074;-56
2023/10/26 00:11:49;;;;;;;16.50;4.32;;;19.30;71.00;;;;;;349745;28;912;-56
2023/10/26 00:12:00;;;;;;;15.25;4.38;;;19.20;71.10;;;;;;349648;28;1116;-56
2023/10/26 00:12:11;;;;;;;14.95;4.20;;;19.30;71.20;;;;;;349701;28;1019;-56
2023/10/26 00:12:21;;;;;;;16.77;4.43;;;19.20;71.20;;;;;;349679;28;1027;-57
2023/10/26 00:12:32;;;;;;;17.27;4.53;;;19.30;71.20;;;;;;349711;28;1023;-56
2023/10/26 00:12:43;;;;;;;17.33;4.32;;;19.30;71.20;;;;;;349666;28;1236;-57
2023/10/26 00:12:54;;;;;;;16.33;4.28;;;19.30;71.30;;;;;;349613;28;1320;-56
2023/10/26 00:13:04;;;;;;;16.50;4.30;;;19.30;71.30;;;;;;349688;28;1248;-56
2023/10/26 00:13:15;;;;;;;15.55;4.55;;;19.30;71.20;;;;;;349635;28;1029;-56
2023/10/26 00:13:26;;;;;;;14.60;4.20;;;19.30;71.20;;;;;;349738;28;1040;-57
2023/10/26 00:13:37;;;;;;;15.90;4.07;;;19.30;71.20;;;;;;349729;28;1102;-55
2023/10/26 00:13:47;;;;;;;16.60;3.90;;;19.30;71.10;;;;;;349714;28;1078;-56
2023/10/26 00:13:58;;;;;;;17.13;3.90;;;19.30;71.00;;;;;;349798;28;1073;-56
2023/10/26 00:14:09;;;;;;;15.60;3.85;;;19.30;71.10;;;;;;349653;28;1106;-56
2023/10/26 00:14:19;;;;;;;15.05;4.05;;;19.30;71.10;;;;;;349694;28;1003;-56
2023/10/26 00:14:30;;;;;;;15.07;4.47;;;19.30;71.20;;;;;;349695;28;1023;-56
2023/10/26 00:14:41;;;;;;;17.35;4.80;;;19.30;71.30;;;;;;349720;28;1035;-57
2023/10/26 00:14:52;;;;;;;16.02;4.35;;;19.30;71.30;;;;;;349627;28;1399;-56
2023/10/26 00:15:03;;;;;;;15.48;4.32;;;19.30;71.40;;;;;;349651;28;972;-55
2023/10/26 00:15:14;;;;;;;15.35;4.65;;;19.20;71.40;;;;;;349614;28;2222;-55
2023/10/26 00:15:25;;;;;;;18.05;4.68;;;19.20;71.40;;;;;;349743;28;813;-56
2023/10/26 00:15:35;;;;;;;18.27;4.47;;;19.20;71.40;;;;;;349752;28;988;-56
2023/10/26 00:15:46;;;;;;;18.27;4.00;;;19.20;71.40;;;;;;349647;28;1516;-57
2023/10/26 00:15:57;;;;;;;20.17;4.43;;;19.20;71.40;;;;;;349666;28;907;-56
2023/10/26 00:16:08;;;;;;;19.83;4.63;;;19.20;71.50;;;;;;349651;28;1451;-57
2023/10/26 00:16:18;;;;;;;19.40;4.78;;;19.30;71.50;;;;;;349712;28;1166;-56
2023/10/26 00:16:29;;;;;;;17.23;4.93;;;19.20;71.50;;;;;;349712;28;1031;-56
2023/10/26 00:16:40;;;;;;;16.27;4.67;;;19.20;71.50;;;;;;349737;28;833;-56
2023/10/26 00:16:51;;;;;;;14.77;4.20;;;19.20;71.50;;;;;;349562;28;1178;-55
2023/10/26 00:17:01;;;;;;;14.75;4.07;;;19.20;71.60;;;;;;349721;28;1186;-56
2023/10/26 00:17:12;;;;;;;16.10;4.28;;;19.20;71.60;;;;;;349756;28;958;-56
2023/10/26 00:17:23;;;;;;;16.90;4.40;;;19.20;71.70;;;;;;349719;28;963;-56
2023/10/26 00:17:33;;;;;;;17.73;4.30;;;19.20;71.70;;;;;;349628;28;1644;-56
2023/10/26 00:17:44;;;;;;;16.70;4.30;;;19.20;71.80;;;;;;349654;28;1154;-56
2023/10/26 00:17:55;;;;;;;16.52;4.13;;;19.20;71.90;;;;;;349737;28;1023;-56
2023/10/26 00:18:05;;;;;;;14.60;4.00;;;19.20;71.90;;;;;;349745;28;2074;-55
2023/10/26 00:18:16;;;;;;;14.18;3.75;;;19.20;71.80;;;;;;349717;28;976;-56
2023/10/26 00:18:27;;;;;;;13.40;4.00;;;19.20;71.80;;;;;;349716;28;963;-55
2023/10/26 00:18:38;;;;;;;14.00;4.30;;;19.20;71.80;;;;;;349600;28;1079;-54
2023/10/26 00:18:48;;;;;;;15.85;4.45;;;19.20;71.80;;;;;;349682;28;1094;-56
2023/10/26 00:18:59;;;;;;;16.73;4.28;;;19.20;71.80;;;;;;349765;28;908;-55
2023/10/26 00:19:10;;;;;;;18.45;4.18;;;19.20;71.80;;;;;;349615;28;972;-56
2023/10/26 00:19:21;;;;;;;19.48;4.32;;;19.20;71.80;;;;;;349729;28;1947;-56
2023/10/26 00:19:32;;;;;;;18.98;4.65;;;19.20;71.80;;;;;;349736;28;1007;-56
2023/10/26 00:19:43;;;;;;;16.67;4.60;;;19.20;71.80;;;;;;349642;28;984;-56
2023/10/26 00:19:54;;;;;;;15.57;4.65;;;19.20;71.70;;;;;;349708;28;1432;-55
2023/10/26 00:20:06;;;;;;;15.18;4.53;;;19.10;71.80;;;;;;349759;28;853;-55
2023/10/26 00:20:17;;;;;;;15.18;4.22;;;19.10;72.10;;;;;;349586;28;1021;-55
2023/10/26 00:20:28;;;;;;;15.20;4.10;;;19.10;72.10;;;;;;349707;28;1800;-55
2023/10/26 00:20:39;;;;;;;17.27;4.18;;;19.10;72.10;;;;;;349566;28;1563;-56
2023/10/26 00:20:56;;;;;;;17.17;4.07;;;19.10;72.20;;;;;;349654;28;1007;-56
2023/10/26 00:21:06;;;;;;;17.88;4.18;;;19.10;72.30;;;;;;349678;28;1119;-56
2023/10/26 00:21:17;;;;;;;18.00;4.32;;;19.10;72.30;;;;;;349669;28;987;-56
2023/10/26 00:21:28;;;;;;;18.57;4.43;;;19.10;72.30;;;;;;349711;28;1166;-56
2023/10/26 00:21:40;;;;;;;19.42;4.55;;;19.20;72.30;;;;;;349708;28;1769;-56
2023/10/26 00:21:52;;;;;;;20.77;4.72;;;19.20;72.30;;;;;;349613;28;1139;-56
2023/10/26 00:22:03;;;;;;;18.83;4.45;;;19.10;72.30;;;;;;349705;28;1102;-57
2023/10/26 00:22:14;;;;;;;17.30;4.22;;;19.10;72.30;;;;;;349707;28;908;-56
2023/10/26 00:22:25;;;;;;;15.80;4.20;;;19.10;72.30;;;;;;349611;28;1210;-56
2023/10/26 00:22:36;;;;;;;16.35;4.40;;;19.10;72.40;;;;;;349750;28;996;-56
2023/10/26 00:22:46;;;;;;;18.58;4.25;;;19.20;72.40;;;;;;349727;28;899;-56
2023/10/26 00:22:57;;;;;;;18.00;4.13;;;19.20;72.40;;;;;;349658;28;1227;-55
2023/10/26 00:23:08;;;;;;;15.80;4.10;;;19.20;72.40;;;;;;349694;28;1212;-56
2023/10/26 00:23:18;;;;;;;15.32;4.55;;;19.10;72.30;;;;;;349704;28;1034;-55
2023/10/26 00:23:29;;;;;;;15.82;4.50;;;19.20;72.30;;;;;;349671;28;1442;-55
2023/10/26 00:23:40;;;;;;;17.25;4.40;;;19.20;72.30;;;;;;349682;28;1047;-57
2023/10/26 00:23:51;;;;;;;16.98;4.43;;;19.20;72.30;;;;;;349623;28;1131;-56
2023/10/26 00:24:02;;;;;;;17.50;4.47;;;19.20;72.20;;;;;;349687;28;992;-55
2023/10/26 00:24:13;;;;;;;18.77;4.57;;;19.20;72.20;;;;;;349703;28;1048;-55
2023/10/26 00:24:23;;;;;;;16.57;4.23;;;19.20;72.20;;;;;;349641;28;1522;-55
2023/10/26 00:24:34;;;;;;;15.50;4.22;;;19.20;72.10;;;;;;349672;28;992;-55
2023/10/26 00:24:45;;;;;;;13.98;4.18;;;19.20;72.10;;;;;;349628;28;952;-55
2023/10/26 00:24:56;;;;;;;16.83;4.38;;;19.20;72.10;;;;;;349692;28;1015;-55
2023/10/26 00:25:07;;;;;;;17.27;4.32;;;19.20;72.10;;;;;;349666;28;1003;-56
2023/10/26 00:25:18;;;;;;;17.33;4.22;;;19.10;72.20;;;;;;349639;28;1118;-56
2023/10/26 00:25:28;;;;;;;18.33;4.35;;;19.20;72.20;;;;;;349714;28;1157;-56
2023/10/26 00:25:39;;;;;;;17.53;4.27;;;19.20;72.40;;;;;;349648;28;918;-57
2023/10/26 00:25:50;;;;;;;17.25;4.25;;;19.20;72.40;;;;;;349714;28;857;-56
2023/10/26 00:26:01;;;;;;;15.35;4.15;;;19.20;72.40;;;;;;349711;28;860;-56
2023/10/26 00:26:11;;;;;;;17.33;4.38;;;19.20;72.40;;;;;;349702;28;1788;-56
2023/10/26 00:26:22;;;;;;;19.40;4.43;;;19.10;72.30;;;;;;349745;28;790;-57
2023/10/26 00:26:33;;;;;;;20.38;4.30;;;19.20;72.30;;;;;;349582;28;1984;-56
2023/10/26 00:26:44;;;;;;;18.33;3.92;;;19.20;72.20;;;;;;349671;28;1124;-56
2023/10/26 00:26:54;;;;;;;15.55;4.00;;;19.20;72.20;;;;;;349644;28;1580;-56
2023/10/26 00:27:05;;;;;;;15.73;4.03;;;19.20;72.30;;;;;;349722;28;1915;-57
2023/10/26 00:27:16;;;;;;;15.32;3.92;;;19.20;72.40;;;;;;349697;28;1127;-56
2023/10/26 00:27:27;;;;;;;14.60;3.80;;;19.20;72.30;;;;;;349697;28;924;-56
2023/10/26 00:27:40;;;;;;;13.55;3.88;;;19.20;72.20;;;;;;349711;28;915;-55
2023/10/26 00:27:52;;;;;;;13.80;3.90;;;19.20;72.20;;;;;;349704;28;1118;-56
2023/10/26 00:28:02;;;;;;;13.65;3.78;;;19.20;72.10;;;;;;349653;28;1038;-57
2023/10/26 00:28:13;;;;;;;15.23;3.92;;;19.20;72.00;;;;;;349729;28;995;-56
2023/10/26 00:28:24;;;;;;;16.05;4.03;;;19.20;72.00;;;;;;349675;28;1015;-56
2023/10/26 00:28:35;;;;;;;16.52;4.32;;;19.20;72.00;;;;;;349714;28;833;-56
2023/10/26 00:28:45;;;;;;;14.80;4.20;;;19.20;72.10;;;;;;349668;28;1007;-56
2023/10/26 00:28:56;;;;;;;14.07;4.18;;;19.20;72.20;;;;;;349614;28;995;-56
2023/10/26 00:29:07;;;;;;;14.65;4.30;;;19.20;72.20;;;;;;349732;28;992;-56
2023/10/26 00:29:17;;;;;;;14.60;4.17;;;19.20;72.20;;;;;;349709;28;983;-56
2023/10/26 00:29:29;;;;;;;15.45;4.03;;;19.20;72.10;;;;;;349645;28;1011;-56
2023/10/26 00:29:40;;;;;;;15.93;3.95;;;19.20;72.10;;;;;;349638;28;1664;-56
2023/10/26 00:29:51;;;;;;;15.65;3.95;;;19.20;72.10;;;;;;349711;28;983;-56
2023/10/26 00:30:02;;;;;;;15.15;3.90;;;19.20;72.10;;;;;;349640;28;1119;-56
2023/10/26 00:30:13;;;;;;;17.33;3.95;;;19.20;72.10;;;;;;349706;28;881;-56
2023/10/26 00:30:24;;;;;;;18.23;3.88;;;19.20;72.10;;;;;;349705;28;984;-57
2023/10/26 00:30:35;;;;;;;18.13;3.85;;;19.10;72.20;;;;;;349589;28;918;-56
2023/10/26 00:30:46;;;;;;;15.27;3.72;;;19.20;72.40;;;;;;349681;28;1078;-56
2023/10/26 00:30:56;;;;;;;17.58;4.07;;;19.20;72.50;;;;;;349654;28;1525;-55
2023/10/26 00:31:07;;;;;;;17.57;4.33;;;19.10;72.40;;;;;;349553;28;1425;-56
2023/10/26 00:31:18;;;;;;;17.30;4.35;;;19.20;72.40;;;;;;349742;28;1035;-56
2023/10/26 00:31:29;;;;;;;15.60;4.38;;;19.20;72.40;;;;;;349729;28;1023;-57
2023/10/26 00:31:39;;;;;;;16.55;4.07;;;19.10;72.30;;;;;;349615;28;1011;-56
2023/10/26 00:31:50;;;;;;;17.70;3.93;;;19.20;72.40;;;;;;349716;28;1146;-56
2023/10/26 00:32:01;;;;;;;17.13;3.70;;;19.20;72.30;;;;;;349739;28;910;-56
2023/10/26 00:32:11;;;;;;;15.75;3.90;;;19.20;72.20;;;;;;349590;28;1170;-56
2023/10/26 00:32:22;;;;;;;14.88;3.90;;;19.20;72.20;;;;;;349709;28;876;-56
2023/10/26 00:32:33;;;;;;;15.03;4.10;;;19.20;72.10;;;;;;349735;28;1015;-55
2023/10/26 00:32:44;;;;;;;15.80;4.43;;;19.20;72.10;;;;;;349635;28;1816;-56
2023/10/26 00:32:54;;;;;;;15.48;4.20;;;19.20;72.30;;;;;;349666;28;1087;-55
2023/10/26 00:33:05;;;;;;;15.82;4.10;;;19.10;72.40;;;;;;349679;28;1135;-56
2023/10/26 00:33:16;;;;;;;14.90;4.10;;;19.20;72.40;;;;;;349648;28;1048;-56
2023/10/26 00:33:26;;;;;;;15.48;4.30;;;19.20;72.40;;;;;;349664;28;1435;-56
2023/10/26 00:33:37;;;;;;;14.93;3.75;;;19.20;72.40;;;;;;349672;28;1465;-56
2023/10/26 00:33:48;;;;;;;15.65;3.85;;;19.20;72.40;;;;;;349664;28;975;-56
2023/10/26 00:33:58;;;;;;;16.37;4.07;;;19.20;72.40;;;;;;349649;28;945;-56
2023/10/26 00:34:09;;;;;;;17.08;4.30;;;19.20;72.40;;;;;;349718;28;940;-57
2023/10/26 00:34:20;;;;;;;17.85;4.28;;;19.20;72.40;;;;;;349633;28;1566;-57
2023/10/26 00:34:31;;;;;;;16.47;3.83;;;19.20;72.30;;;;;;349722;28;817;-57
2023/10/26 00:34:42;;;;;;;17.10;3.70;;;19.20;72.30;;;;;;349593;28;1166;-57
2023/10/26 00:34:52;;;;;;;16.40;3.70;;;19.20;72.20;;;;;;349656;28;1010;-57
2023/10/26 00:35:03;;;;;;;18.23;3.95;;;19.20;72.30;;;;;;349745;28;1008;-57
2023/10/26 00:35:14;;;;;;;16.77;3.92;;;19.20;72.30;;;;;;349477;28;1532;-57
2023/10/26 00:35:25;;;;;;;17.23;4.38;;;19.20;72.30;;;;;;349557;28;1176;-56
2023/10/26 00:35:36;;;;;;;15.27;4.20;;;19.20;72.20;;;;;;349713;28;972;-57
2023/10/26 00:35:47;;;;;;;15.13;4.28;;;19.20;72.10;;;;;;349699;28;995;-56
2023/10/26 00:35:57;;;;;;;14.70;4.20;;;19.20;72.20;;;;;;349691;28;1099;-56
2023/10/26 00:36:08;;;;;;;14.95;4.45;;;19.20;72.20;;;;;;349651;28;1019;-57
2023/10/26 00:36:19;;;;;;;14.05;4.55;;;19.20;72.20;;;;;;349670;28;1526;-56
2023/10/26 00:36:29;;;;;;;15.23;4.28;;;19.20;72.20;;;;;;349697;28;1016;-56
2023/10/26 00:36:40;;;;;;;15.20;4.13;;;19.20;72.20;;;;;;349693;28;861;-56
2023/10/26 00:36:51;;;;;;;16.25;3.90;;;19.20;72.20;;;;;;349644;28;898;-56
2023/10/26 00:37:02;;;;;;;15.68;3.90;;;19.20;72.20;;;;;;349653;28;1114;-56
2023/10/26 00:37:13;;;;;;;15.38;4.00;;;19.20;72.10;;;;;;349646;28;992;-55
2023/10/26 00:37:23;;;;;;;14.07;3.90;;;19.20;72.10;;;;;;349649;28;1426;-56
2023/10/26 00:37:34;;;;;;;13.55;3.65;;;19.20;72.20;;;;;;349618;28;1827;-55
2023/10/26 00:37:45;;;;;;;13.83;3.67;;;19.20;72.20;;;;;;349710;28;1771;-56
2023/10/26 00:37:56;;;;;;;13.63;3.70;;;19.20;72.10;;;;;;349691;28;1110;-54
2023/10/26 00:38:06;;;;;;;15.70;3.67;;;19.20;72.20;;;;;;349709;28;1074;-55
2023/10/26 00:38:17;;;;;;;16.10;3.80;;;19.20;72.20;;;;;;349625;28;972;-55
2023/10/26 00:38:28;;;;;;;17.13;4.20;;;19.20;72.20;;;;;;349716;28;1003;-57
2023/10/26 00:38:38;;;;;;;16.33;4.38;;;19.30;72.30;;;;;;349695;28;1051;-56
2023/10/26 00:38:49;;;;;;;15.55;4.00;;;19.30;72.20;;;;;;349694;28;1091;-55
2023/10/26 00:39:00;;;;;;;15.82;3.85;;;19.20;72.20;;;;;;349718;28;1035;-55
2023/10/26 00:39:11;;;;;;;16.33;4.10;;;19.30;72.20;;;;;;349600;28;1810;-56
2023/10/26 00:39:21;;;;;;;17.40;4.43;;;19.20;72.20;;;;;;349690;28;866;-56
2023/10/26 00:39:33;;;;;;;15.55;4.20;;;19.20;72.20;;;;;;349770;28;780;-57
2023/10/26 00:39:44;;;;;;;15.18;3.92;;;19.20;72.20;;;;;;349710;28;1587;-57
2023/10/26 00:39:55;;;;;;;15.77;3.97;;;19.20;72.20;;;;;;349734;28;1039;-57
2023/10/26 00:40:06;;;;;;;15.90;4.10;;;19.20;72.20;;;;;;349681;28;926;-57
2023/10/26 00:40:17;;;;;;;14.18;4.05;;;19.20;72.20;;;;;;349680;28;1132;-57
2023/10/26 00:40:28;;;;;;;13.93;4.18;;;19.20;72.00;;;;;;349653;28;2453;-56
2023/10/26 00:40:40;;;;;;;12.93;4.20;;;19.20;71.80;;;;;;349728;28;1023;-57
2023/10/26 00:40:50;;;;;;;12.65;4.10;;;19.20;71.90;;;;;;349705;28;1133;-57
2023/10/26 00:41:02;;;;;;;13.02;3.63;;;19.20;71.90;;;;;;349636;28;1024;-57
2023/10/26 00:41:12;;;;;;;16.15;3.85;;;19.30;72.00;;;;;;349669;28;1063;-56
2023/10/26 00:41:23;;;;;;;16.40;4.05;;;19.20;72.00;;;;;;349704;28;1035;-57
2023/10/26 00:41:34;;;;;;;17.15;4.20;;;19.20;72.00;;;;;;349669;28;976;-56
2023/10/26 00:41:45;;;;;;;15.48;3.92;;;19.20;72.00;;;;;;349708;28;841;-56
2023/10/26 00:41:56;;;;;;;15.55;3.90;;;19.20;72.00;;;;;;349680;28;855;-56
2023/10/26 00:42:07;;;;;;;14.88;4.00;;;19.20;72.10;;;;;;349644;28;1086;-56
2023/10/26 00:42:17;;;;;;;15.73;4.32;;;19.20;72.00;;;;;;349592;28;1020;-56
2023/10/26 00:42:28;;;;;;;15.20;4.07;;;19.20;72.00;;;;;;349538;28;1095;-56
2023/10/26 00:42:39;;;;;;;15.10;4.10;;;19.30;71.90;;;;;;349483;28;1027;-56
2023/10/26 00:42:49;;;;;;;15.65;3.95;;;19.20;71.90;;;;;;349445;28;1100;-56
2023/10/26 00:43:01;;;;;;;15.18;4.00;;;19.20;72.00;;;;;;349632;28;964;-56
2023/10/26 00:43:22;;;;;;;14.60;3.85;;;19.30;72.00;;;;;;349692;28;786;-56
2023/10/26 00:43:33;;;;;;;14.90;3.88;;;19.20;72.00;;;;;;349671;28;1003;-57
2023/10/26 00:43:45;;;;;;;14.70;3.80;;;19.20;72.10;;;;;;349632;28;1032;-56
2023/10/26 00:43:56;;;;;;;13.93;3.55;;;19.20;72.10;;;;;;349659;28;1082;-57
2023/10/26 00:44:06;;;;;;;13.65;3.65;;;19.20;72.10;;;;;;349630;28;1295;-56
2023/10/26 00:44:17;;;;;;;12.85;3.58;;;19.30;71.90;;;;;;349686;28;1420;-56
2023/10/26 00:44:28;;;;;;;12.35;3.47;;;19.30;71.90;;;;;;349694;28;1042;-56
2023/10/26 00:44:39;;;;;;;11.40;3.42;;;19.20;72.00;;;;;;349611;28;1079;-57
2023/10/26 00:44:51;;;;;;;14.27;3.70;;;19.20;72.00;;;;;;349714;28;934;-57
2023/10/26 00:45:02;;;;;;;16.45;3.95;;;19.20;72.00;;;;;;349678;28;1000;-57
2023/10/26 00:45:12;;;;;;;16.10;4.00;;;19.20;72.10;;;;;;349652;28;1103;-57
2023/10/26 00:45:23;;;;;;;16.00;4.20;;;19.20;72.20;;;;;;349723;28;1090;-57
2023/10/26 00:45:35;;;;;;;15.68;4.05;;;19.20;72.20;;;;;;349584;28;1047;-56
2023/10/26 00:45:49;;;;;;;17.63;3.85;;;19.20;72.20;;;;;;349689;28;1114;-57
2023/10/26 00:46:00;;;;;;;14.80;3.60;;;19.20;72.20;;;;;;349682;28;1098;-56
2023/10/26 00:46:11;;;;;;;13.18;3.60;;;19.20;72.20;;;;;;349655;28;1146;-56
2023/10/26 00:46:22;;;;;;;13.30;3.55;;;19.20;72.30;;;;;;349610;28;1063;-57
2023/10/26 00:46:35;;;;;;;13.30;3.65;;;19.20;72.30;;;;;;349618;28;1917;-57
2023/10/26 00:46:46;;;;;;;12.23;3.60;;;19.20;72.20;;;;;;349624;28;987;-57
2023/10/26 00:46:57;;;;;;;13.40;3.50;;;19.20;72.20;;;;;;349623;28;1585;-56
2023/10/26 00:47:08;;;;;;;13.40;3.28;;;19.20;72.20;;;;;;349716;28;1051;-56
2023/10/26 00:47:19;;;;;;;15.68;3.80;;;19.20;72.20;;;;;;349605;28;1130;-56
2023/10/26 00:47:31;;;;;;;15.10;3.83;;;19.20;72.20;;;;;;349625;28;1166;-55
2023/10/26 00:47:42;;;;;;;15.32;3.85;;;19.20;72.20;;;;;;349660;28;991;-56
2023/10/26 00:47:53;;;;;;;14.48;3.70;;;19.20;72.20;;;;;;349661;28;1074;-56
2023/10/26 00:48:05;;;;;;;13.07;3.80;;;19.20;72.10;;;;;;349653;28;1150;-56
2023/10/26 00:48:16;;;;;;;12.93;3.83;;;19.30;72.10;;;;;;349580;28;1023;-55
2023/10/26 00:48:28;;;;;;;15.07;4.30;;;19.20;72.10;;;;;;349718;28;1098;-56
2023/10/26 00:48:39;;;;;;;15.02;4.30;;;19.20;72.00;;;;;;349676;28;1050;-56
2023/10/26 00:48:51;;;;;;;16.35;4.38;;;19.30;72.00;;;;;;349634;28;1185;-56
2023/10/26 00:49:02;;;;;;;18.90;4.00;;;19.30;72.10;;;;;;349597;28;1253;-56
2023/10/26 00:49:15;;;;;;;21.67;4.70;;;19.20;72.20;;;;;;349686;28;1059;-57
2023/10/26 00:49:26;;;;;;;19.63;4.50;;;19.20;72.30;;;;;;349693;28;1059;-56
2023/10/26 00:49:38;;;;;;;17.70;4.35;;;19.20;72.40;;;;;;349689;28;983;-56
2023/10/26 00:49:48;;;;;;;16.77;3.85;;;19.20;72.30;;;;;;349579;28;1194;-56
2023/10/26 00:50:01;;;;;;;17.92;3.95;;;19.20;72.30;;;;;;349709;28;729;-56
2023/10/26 00:50:11;;;;;;;16.27;3.75;;;19.20;72.20;;;;;;349677;28;1066;-56
2023/10/26 00:50:23;;;;;;;14.50;3.65;;;19.20;72.30;;;;;;349643;28;1095;-56
2023/10/26 00:50:33;;;;;;;13.68;3.42;;;19.20;72.30;;;;;;349580;28;987;-56
2023/10/26 00:50:44;;;;;;;14.23;3.63;;;19.20;72.30;;;;;;349690;28;892;-56
2023/10/26 00:50:56;;;;;;;14.90;3.67;;;19.20;72.30;;;;;;349708;28;888;-55
2023/10/26 00:51:06;;;;;;;14.40;3.72;;;19.20;72.30;;;;;;349644;28;984;-58
2023/10/26 00:51:17;;;;;;;14.43;3.70;;;19.20;72.20;;;;;;349609;28;1015;-56
2023/10/26 00:51:28;;;;;;;13.30;3.65;;;19.20;72.30;;;;;;349650;28;1007;-57
2023/10/26 00:51:40;;;;;;;14.25;3.50;;;19.20;72.30;;;;;;349730;28;1094;-58
2023/10/26 00:52:00;;;;;;;13.63;3.40;;;19.20;72.40;;;;;;349667;28;1015;-56
2023/10/26 00:52:12;;;;;;;13.23;3.88;;;19.20;72.40;;;;;;349558;28;1143;-55
2023/10/26 00:52:23;;;;;;;14.98;4.05;;;19.20;72.40;;;;;;349699;28;869;-56
2023/10/26 00:52:36;;;;;;;14.52;3.75;;;19.20;72.30;;;;;;349701;28;1000;-56
2023/10/26 00:52:47;;;;;;;13.48;3.47;;;19.20;72.30;;;;;;349700;28;947;-58
2023/10/26 00:52:59;;;;;;;12.68;3.33;;;19.20;72.40;;;;;;349582;28;1035;-58
2023/10/26 00:53:10;;;;;;;12.70;3.25;;;19.20;72.40;;;;;;349690;28;900;-56
2023/10/26 00:53:21;;;;;;;16.02;3.60;;;19.20;72.40;;;;;;349710;28;1071;-56
2023/10/26 00:53:32;;;;;;;17.07;3.77;;;19.20;72.40;;;;;;349659;28;1417;-57
2023/10/26 00:53:43;;;;;;;14.75;3.72;;;19.20;72.50;;;;;;349582;28;1197;-57
2023/10/26 00:53:54;;;;;;;13.13;3.63;;;19.20;72.70;;;;;;349661;28;1213;-55
2023/10/26 00:54:07;;;;;;;14.48;3.83;;;19.20;72.70;;;;;;349747;28;841;-58
2023/10/26 00:54:20;;;;;;;13.20;3.90;;;19.20;72.80;;;;;;349618;28;1217;-55
2023/10/26 00:54:32;;;;;;;14.60;4.00;;;19.20;72.70;;;;;;349660;28;984;-56
2023/10/26 00:54:43;;;;;;;15.43;3.88;;;19.20;72.80;;;;;;349624;28;1055;-56
2023/10/26 00:54:54;;;;;;;18.38;4.10;;;19.20;72.80;;;;;;349594;28;1003;-56
2023/10/26 00:55:06;;;;;;;17.85;4.20;;;19.20;72.80;;;;;;349716;28;951;-57
2023/10/26 00:55:17;;;;;;;13.25;3.90;;;19.20;72.60;;;;;;349701;28;1004;-57
2023/10/26 00:55:29;;;;;;;12.82;3.63;;;19.20;72.40;;;;;;349668;28;979;-55
2023/10/26 00:55:41;;;;;;;14.38;3.80;;;19.20;72.50;;;;;;349683;28;893;-57
2023/10/26 00:55:52;;;;;;;16.55;4.03;;;19.20;72.60;;;;;;349697;28;885;-56
2023/10/26 00:56:04;;;;;;;15.27;4.05;;;19.20;72.70;;;;;;349506;28;1201;-56
2023/10/26 00:56:19;;;;;;;14.23;3.88;;;19.20;72.70;;;;;;349691;28;1862;-56
2023/10/26 00:56:31;;;;;;;14.40;3.80;;;19.20;72.70;;;;;;349685;28;1008;-56
2023/10/26 00:56:42;;;;;;;14.85;3.60;;;19.20;72.60;;;;;;349427;28;1135;-56
2023/10/26 00:56:54;;;;;;;13.65;3.83;;;19.20;72.70;;;;;;349491;28;1972;-56
2023/10/26 00:57:05;;;;;;;13.30;3.80;;;19.20;72.70;;;;;;349532;28;2053;-56
2023/10/26 00:57:18;;;;;;;13.27;3.78;;;19.20;72.60;;;;;;349499;28;1039;-56
2023/10/26 00:57:28;;;;;;;13.13;3.78;;;19.20;72.70;;;;;;349583;28;1152;-57
2023/10/26 00:57:39;;;;;;;14.80;3.90;;;19.20;72.60;;;;;;349538;28;908;-55
2023/10/26 00:57:51;;;;;;;15.95;3.88;;;19.20;72.60;;;;;;349414;28;1440;-56
2023/10/26 00:58:01;;;;;;;17.67;4.07;;;19.20;72.50;;;;;;349557;28;931;-55
2023/10/26 00:58:13;;;;;;;16.02;3.90;;;19.20;72.60;;;;;;349551;28;922;-56
2023/10/26 00:58:26;;;;;;;16.08;4.18;;;19.20;72.70;;;;;;349518;28;1098;-56
2023/10/26 00:58:37;;;;;;;15.45;3.90;;;19.20;72.70;;;;;;349547;28;1344;-56